createdAt,value
2023-01-27T00:01:23.570Z,3.37
2023-01-27T00:06:27.684Z,3.03
2023-01-27T00:11:50.511Z,2.50
2023-01-27T00:16:57.032Z,2.50
2023-01-27T00:22:17.318Z,2.60
2023-01-27T00:27:19.054Z,1.83
2023-01-27T00:32:41.823Z,2.03
2023-01-27T00:37:47.306Z,1.37
2023-01-27T00:42:51.995Z,1.03
2023-01-27T00:47:57.506Z,1.50
2023-01-27T00:53:02.300Z,1.80
2023-01-27T00:58:05.690Z,2.17
2023-01-27T01:03:07.589Z,2.10
2023-01-27T01:08:11.736Z,2.03
2023-01-27T01:13:16.574Z,2.10
2023-01-27T01:18:18.378Z,2.27
2023-01-27T01:23:24.926Z,1.80
2023-01-27T01:28:26.757Z,1.50
2023-01-27T01:33:33.907Z,1.70
2023-01-27T01:38:40.795Z,1.70
2023-01-27T01:43:46.179Z,1.90
2023-01-27T01:49:00.059Z,1.93
2023-01-27T01:54:04.589Z,2.30
2023-01-27T01:59:12.123Z,1.63
2023-01-27T02:04:20.020Z,1.63
2023-01-27T02:09:37.764Z,1.50
2023-01-27T02:14:40.206Z,1.87
2023-01-27T02:20:02.967Z,1.37
2023-01-27T02:25:15.953Z,1.23
2023-01-27T02:30:19.290Z,1.40
2023-01-27T02:35:33.402Z,1.13
2023-01-27T02:40:39.359Z,1.53
2023-01-27T02:45:41.248Z,2.20
2023-01-27T02:50:47.668Z,1.70
2023-01-27T02:55:53.191Z,1.40
2023-01-27T03:00:57.149Z,1.50
2023-01-27T03:06:01.263Z,1.50
2023-01-27T03:11:03.832Z,1.23
2023-01-27T03:16:25.335Z,1.17
2023-01-27T03:21:28.592Z,1.90
2023-01-27T03:26:30.892Z,1.70
2023-01-27T03:31:34.241Z,1.53
2023-01-27T03:37:01.890Z,1.63
2023-01-27T03:42:27.913Z,1.80
2023-01-27T03:47:30.545Z,1.60
2023-01-27T03:52:35.525Z,1.93
2023-01-27T03:57:39.333Z,2.30
2023-01-27T04:03:04.351Z,2.70
2023-01-27T04:08:09.227Z,2.50
2023-01-27T04:13:13.412Z,2.27
2023-01-27T04:18:16.054Z,2.00
2023-01-27T04:23:17.772Z,2.30
2023-01-27T04:28:37.273Z,2.27
2023-01-27T04:33:46.330Z,2.67
2023-01-27T04:38:51.330Z,2.47
2023-01-27T04:43:53.333Z,2.30
2023-01-27T04:48:57.709Z,2.63
2023-01-27T04:53:59.775Z,2.80
2023-01-27T04:59:08.842Z,2.40
2023-01-27T05:04:10.672Z,2.40
2023-01-27T05:09:14.976Z,2.60
2023-01-27T05:14:19.555Z,2.70
2023-01-27T05:19:23.578Z,2.87
2023-01-27T05:24:27.647Z,2.57
2023-01-27T05:29:29.547Z,2.83
2023-01-27T05:34:34.084Z,2.23
2023-01-27T05:39:35.842Z,2.13
2023-01-27T05:44:39.592Z,2.20
2023-01-27T05:49:43.591Z,2.20
2023-01-27T05:54:45.604Z,2.47
2023-01-27T05:59:49.661Z,2.37
2023-01-27T06:04:53.474Z,2.10
2023-01-27T06:09:55.144Z,2.00
2023-01-27T06:15:02.833Z,2.10
2023-01-27T06:20:11.591Z,2.50
2023-01-27T06:25:16.671Z,1.83
2023-01-27T06:30:18.564Z,1.77
2023-01-27T06:35:24.907Z,1.77
2023-01-27T06:40:32.928Z,1.70
2023-01-27T06:45:34.743Z,1.77
2023-01-27T06:50:38.734Z,1.73
2023-01-27T06:55:41.855Z,1.97
2023-01-27T07:00:50.437Z,2.00
2023-01-27T07:05:54.681Z,1.77
2023-01-27T07:10:56.456Z,1.70
2023-01-27T07:16:01.630Z,1.90
2023-01-27T07:21:05.994Z,2.07
2023-01-27T07:26:19.181Z,2.10
2023-01-27T07:31:29.536Z,2.67
2023-01-27T07:36:33.611Z,2.70
2023-01-27T07:41:35.303Z,2.43
2023-01-27T07:46:37.044Z,2.40
2023-01-27T07:51:43.494Z,2.53
2023-01-27T07:56:45.197Z,2.47
2023-01-27T08:01:49.267Z,2.20
2023-01-27T08:06:51.114Z,2.40
2023-01-27T08:11:58.001Z,2.20
2023-01-27T08:17:03.302Z,2.83
2023-01-27T08:22:05.242Z,1.90
2023-01-27T08:27:08.289Z,1.90
2023-01-27T08:32:15.184Z,2.20
2023-01-27T08:37:19.412Z,1.67
2023-01-27T08:42:21.787Z,1.60
2023-01-27T08:47:26.298Z,1.83
2023-01-27T08:52:30.963Z,1.90
2023-01-27T08:57:34.237Z,2.10
2023-01-27T09:02:45.643Z,2.17
2023-01-27T09:07:51.705Z,3.37
2023-01-27T09:12:58.830Z,3.27
2023-01-27T09:18:00.512Z,3.57
2023-01-27T09:23:02.219Z,3.40
2023-01-27T09:28:06.815Z,4.03
2023-01-27T09:33:09.096Z,3.70
2023-01-27T09:38:15.090Z,3.37
2023-01-27T09:43:46.662Z,3.43
2023-01-27T09:49:14.107Z,3.23
2023-01-27T09:54:24.524Z,3.70
2023-01-27T09:59:43.743Z,2.87
2023-01-27T10:05:02.440Z,2.90
2023-01-27T10:10:31.235Z,2.67
2023-01-27T10:15:40.015Z,2.57
2023-01-27T10:20:47.106Z,3.03
2023-01-27T10:26:02.062Z,3.00
2023-01-27T10:31:22.611Z,2.90
2023-01-27T10:36:26.661Z,2.60
2023-01-27T10:41:55.744Z,2.80
2023-01-27T10:47:07.441Z,2.17
2023-01-27T10:52:13.486Z,2.63
2023-01-27T10:57:28.689Z,3.67
2023-01-27T11:02:57.459Z,2.87
2023-01-27T11:08:04.136Z,2.63
2023-01-27T11:13:08.825Z,2.90
2023-01-27T11:18:17.896Z,3.00
2023-01-27T11:23:22.276Z,3.83
2023-01-27T11:28:37.535Z,2.70
2023-01-27T11:34:00.320Z,2.50
2023-01-27T11:39:04.745Z,3.17
2023-01-27T11:44:15.057Z,3.27
2023-01-27T11:49:29.022Z,3.40
2023-01-27T11:54:38.685Z,3.37
2023-01-27T11:59:46.704Z,3.27
2023-01-27T12:04:59.985Z,3.37
2023-01-27T12:10:01.890Z,2.90
2023-01-27T12:15:05.392Z,2.70
2023-01-27T12:20:30.618Z,2.17
2023-01-27T12:25:47.884Z,2.07
2023-01-27T12:31:00.408Z,1.70
2023-01-27T12:36:10.745Z,1.63
2023-01-27T12:41:23.666Z,1.93
2023-01-27T12:46:27.168Z,2.10
2023-01-27T12:51:41.082Z,2.30
2023-01-27T12:56:43.136Z,2.57
2023-01-27T13:01:57.763Z,3.10
2023-01-27T13:07:02.742Z,2.63
2023-01-27T13:12:30.443Z,2.43
2023-01-27T13:17:45.056Z,2.13
2023-01-27T13:22:49.205Z,1.60
2023-01-27T13:27:57.756Z,1.77
2023-01-27T13:33:16.853Z,2.00
2023-01-27T13:38:25.611Z,1.80
2023-01-27T13:43:33.687Z,2.40
2023-01-27T13:48:40.681Z,1.77
2023-01-27T13:53:43.625Z,2.80
2023-01-27T13:59:21.827Z,2.47
2023-01-27T14:04:59.722Z,2.47
2023-01-27T14:10:25.772Z,2.17
2023-01-27T14:15:38.053Z,1.90
2023-01-27T14:20:50.321Z,1.90
2023-01-27T14:26:12.505Z,2.07
2023-01-27T14:31:20.176Z,2.00
2023-01-27T14:36:33.098Z,1.90
2023-01-27T14:41:44.982Z,2.00
2023-01-27T14:47:11.695Z,1.90
2023-01-27T14:52:34.778Z,2.07
2023-01-27T14:57:56.796Z,2.10
2023-01-27T15:03:23.916Z,1.97
2023-01-27T15:08:58.588Z,2.40
2023-01-27T15:14:03.915Z,2.33
2023-01-27T15:19:35.945Z,1.90
2023-01-27T15:24:46.061Z,1.63
2023-01-27T15:29:48.451Z,2.13
2023-01-27T15:34:56.031Z,1.73
2023-01-27T15:40:06.085Z,1.80
2023-01-27T15:45:26.491Z,1.80
2023-01-27T15:50:31.466Z,1.90
2023-01-27T15:55:37.186Z,1.87
2023-01-27T16:00:43.748Z,2.13
2023-01-27T16:05:49.451Z,3.75
2023-01-27T16:10:51.890Z,5.20
2023-01-27T16:16:18.497Z,5.90
2023-01-27T16:21:41.219Z,5.43
2023-01-27T16:26:56.389Z,5.63
2023-01-27T16:32:05.925Z,7.73
2023-01-27T16:37:26.608Z,6.07
2023-01-27T16:42:31.549Z,3.20
2023-01-27T16:47:55.132Z,2.37
2023-01-27T16:52:57.183Z,2.60
2023-01-27T16:58:04.358Z,2.27
2023-01-27T17:03:18.387Z,2.27
2023-01-27T17:08:27.712Z,3.90
2023-01-27T17:13:45.658Z,2.80
2023-01-27T17:18:52.769Z,1.90
2023-01-27T17:24:09.552Z,2.03
2023-01-27T17:29:17.981Z,2.00
2023-01-27T17:34:23.568Z,2.30
2023-01-27T17:39:28.761Z,3.00
2023-01-27T17:44:35.612Z,1.80
2023-01-27T17:49:40.990Z,2.80
2023-01-27T17:54:50.219Z,1.60
2023-01-27T17:59:56.611Z,1.90
2023-01-27T18:05:04.724Z,2.40
2023-01-27T18:10:47.704Z,2.57
2023-01-27T18:16:03.827Z,3.13
2023-01-27T18:21:14.577Z,2.80
2023-01-27T18:26:22.174Z,3.00
2023-01-27T18:31:31.362Z,4.07
2023-01-27T18:36:39.699Z,3.80
2023-01-27T18:41:47.232Z,5.27
2023-01-27T18:46:49.095Z,4.83
2023-01-27T18:51:51.003Z,2.30
2023-01-27T18:56:55.186Z,2.77
2023-01-27T19:01:59.808Z,3.10
2023-01-27T19:07:01.642Z,6.23
2023-01-27T19:12:05.921Z,6.70
2023-01-27T19:17:18.044Z,3.37
2023-01-27T19:22:20.816Z,3.70
2023-01-27T19:27:28.929Z,3.20
2023-01-27T19:32:30.721Z,2.77
2023-01-27T19:37:35.073Z,2.20
2023-01-27T19:42:37.088Z,2.80
2023-01-27T19:47:43.979Z,2.63
2023-01-27T19:52:48.296Z,3.37
2023-01-27T19:57:53.974Z,3.53
2023-01-27T20:02:57.759Z,3.43
2023-01-27T20:08:00.484Z,3.47
2023-01-27T20:13:05.019Z,3.07
2023-01-27T20:18:22.888Z,3.90
2023-01-27T20:23:25.699Z,3.90
2023-01-27T20:28:29.966Z,4.93
2023-01-27T20:33:34.113Z,4.50
2023-01-27T20:38:36.021Z,5.07
2023-01-27T20:43:42.694Z,4.77
2023-01-27T20:48:46.720Z,4.20
2023-01-27T20:53:49.460Z,4.43
2023-01-27T20:58:54.306Z,4.10
2023-01-27T21:03:56.123Z,3.83
2023-01-27T21:09:00.202Z,4.30
2023-01-27T21:14:01.882Z,21.93
2023-01-27T21:19:09.641Z,8.47
2023-01-27T21:24:13.530Z,8.33
2023-01-27T21:29:17.863Z,6.13
2023-01-27T21:34:19.883Z,7.83
2023-01-27T21:39:24.300Z,7.23
2023-01-27T21:44:46.490Z,8.37
2023-01-27T21:50:04.037Z,6.87
2023-01-27T21:55:10.891Z,7.83
2023-01-27T22:00:13.802Z,9.53
2023-01-27T22:05:17.783Z,10.20
2023-01-27T22:10:27.495Z,12.27
2023-01-27T22:15:31.837Z,9.67
2023-01-27T22:20:39.219Z,10.93
2023-01-27T22:25:48.266Z,10.63
2023-01-27T22:30:56.131Z,8.90
2023-01-27T22:36:05.052Z,9.57
2023-01-27T22:41:12.059Z,9.40
2023-01-27T22:46:14.445Z,8.33
2023-01-27T22:51:20.738Z,8.70
2023-01-27T22:56:25.500Z,8.43
2023-01-27T23:01:27.519Z,8.97
2023-01-27T23:06:36.654Z,13.67
2023-01-27T23:11:43.227Z,12.90
2023-01-27T23:16:45.675Z,12.47
2023-01-27T23:21:52.157Z,12.53
2023-01-27T23:26:58.963Z,11.97
2023-01-27T23:32:00.884Z,12.63
2023-01-27T23:37:03.001Z,12.23
2023-01-27T23:42:08.267Z,10.40
2023-01-27T23:47:12.753Z,11.30
2023-01-27T23:52:16.932Z,10.60
2023-01-27T23:57:18.792Z,11.67
